createdAt,value
2019-03-29T00:01:21.230Z,10.50
2019-03-29T00:03:54.129Z,10.40
2019-03-29T00:06:26.995Z,10.30
2019-03-29T00:08:59.884Z,10.20
2019-03-29T00:11:32.735Z,10.00
2019-03-29T00:14:05.710Z,9.90
2019-03-29T00:16:38.515Z,9.90
2019-03-29T00:19:11.726Z,9.80
2019-03-29T00:21:44.668Z,9.80
2019-03-29T00:24:17.576Z,9.70
2019-03-29T00:26:50.504Z,9.70
2019-03-29T00:29:23.370Z,9.60
2019-03-29T00:31:56.336Z,9.60
2019-03-29T00:34:29.228Z,9.70
2019-03-29T00:37:02.121Z,9.80
2019-03-29T00:39:35.462Z,9.90
2019-03-29T00:42:08.300Z,9.80
2019-03-29T00:44:41.187Z,9.80
2019-03-29T00:47:14.040Z,9.60
2019-03-29T00:49:46.902Z,9.50
2019-03-29T00:52:19.751Z,9.50
2019-03-29T00:54:52.616Z,9.50
2019-03-29T00:57:25.478Z,9.40
2019-03-29T00:59:58.403Z,9.30
2019-03-29T01:02:31.272Z,9.30
2019-03-29T01:05:04.281Z,9.20
2019-03-29T01:07:37.144Z,9.10
2019-03-29T01:10:10.337Z,9.10
2019-03-29T01:12:43.188Z,9.10
2019-03-29T01:15:16.473Z,9.00
2019-03-29T01:17:49.346Z,8.90
2019-03-29T01:20:22.368Z,8.80
2019-03-29T01:22:55.593Z,8.70
2019-03-29T01:25:28.413Z,8.80
2019-03-29T01:28:01.222Z,8.80
2019-03-29T01:30:34.079Z,8.90
2019-03-29T01:33:07.009Z,8.80
2019-03-29T01:35:39.955Z,8.80
2019-03-29T01:38:21.631Z,8.80
2019-03-29T01:40:47.414Z,8.80
2019-03-29T01:43:20.245Z,8.70
2019-03-29T01:45:53.149Z,8.70
2019-03-29T01:48:25.962Z,8.60
2019-03-29T01:50:59.205Z,8.50
2019-03-29T01:53:32.066Z,8.50
2019-03-29T01:56:05.189Z,8.40
2019-03-29T01:58:37.975Z,8.40
2019-03-29T02:01:10.847Z,8.30
2019-03-29T02:03:43.742Z,8.30
2019-03-29T02:06:16.794Z,8.30
2019-03-29T02:08:49.691Z,8.30
2019-03-29T02:11:22.606Z,8.30
2019-03-29T02:13:55.793Z,8.20
2019-03-29T02:16:29.283Z,8.20
2019-03-29T02:19:03.209Z,8.20
2019-03-29T02:21:36.134Z,8.20
2019-03-29T02:24:08.972Z,8.10
2019-03-29T02:26:41.799Z,8.20
2019-03-29T02:29:14.599Z,8.20
2019-03-29T02:31:47.450Z,8.20
2019-03-29T02:34:20.340Z,8.20
2019-03-29T02:36:53.286Z,8.20
2019-03-29T02:39:27.069Z,8.20
2019-03-29T02:42:00.398Z,8.20
2019-03-29T02:44:34.835Z,8.20
2019-03-29T02:47:07.874Z,8.40
2019-03-29T02:49:40.806Z,8.40
2019-03-29T02:52:13.647Z,8.40
2019-03-29T02:54:46.466Z,8.50
2019-03-29T02:57:19.273Z,8.40
2019-03-29T02:59:52.369Z,8.50
2019-03-29T03:02:26.672Z,8.50
2019-03-29T03:04:59.592Z,8.40
2019-03-29T03:07:35.509Z,8.30
2019-03-29T03:10:11.197Z,8.30
2019-03-29T03:12:43.978Z,8.40
2019-03-29T03:15:18.109Z,8.30
2019-03-29T03:17:50.945Z,8.20
2019-03-29T03:20:23.735Z,8.30
2019-03-29T03:22:56.622Z,8.30
2019-03-29T03:25:29.467Z,8.30
2019-03-29T03:28:02.516Z,8.30
2019-03-29T03:30:35.592Z,8.30
2019-03-29T03:33:08.810Z,8.30
2019-03-29T03:35:41.649Z,8.20
2019-03-29T03:38:14.558Z,8.20
2019-03-29T03:40:47.374Z,8.10
2019-03-29T03:43:20.256Z,8.00
2019-03-29T03:45:53.254Z,8.00
2019-03-29T03:48:25.973Z,8.00
2019-03-29T03:50:59.414Z,7.90
2019-03-29T03:53:32.466Z,7.90
2019-03-29T03:56:07.347Z,7.80
2019-03-29T03:58:41.602Z,7.70
2019-03-29T04:01:14.547Z,7.70
2019-03-29T04:03:47.733Z,7.60
2019-03-29T04:06:20.427Z,7.50
2019-03-29T04:08:53.283Z,7.50
2019-03-29T04:11:26.042Z,7.40
2019-03-29T04:13:58.905Z,7.30
2019-03-29T04:16:31.773Z,7.30
2019-03-29T04:19:04.772Z,7.30
2019-03-29T04:21:37.632Z,7.40
2019-03-29T04:24:10.418Z,7.40
2019-03-29T04:26:43.273Z,7.40
2019-03-29T04:29:16.029Z,7.40
2019-03-29T04:31:48.923Z,7.40
2019-03-29T04:34:21.723Z,7.40
2019-03-29T04:36:54.599Z,7.20
2019-03-29T04:39:27.430Z,7.30
2019-03-29T04:42:00.291Z,7.40
2019-03-29T04:44:33.139Z,7.30
2019-03-29T04:47:06.092Z,7.30
2019-03-29T04:49:38.977Z,7.30
2019-03-29T04:52:11.747Z,7.30
2019-03-29T04:54:44.614Z,7.40
2019-03-29T04:57:17.384Z,7.40
2019-03-29T04:59:50.149Z,7.50
2019-03-29T05:02:23.191Z,7.60
2019-03-29T05:04:55.891Z,7.70
2019-03-29T05:07:28.797Z,7.80
2019-03-29T05:10:01.651Z,8.00
2019-03-29T05:12:34.635Z,8.10
2019-03-29T05:15:08.579Z,8.20
2019-03-29T05:17:41.592Z,8.40
2019-03-29T05:20:14.508Z,8.60
2019-03-29T05:22:47.388Z,8.80
2019-03-29T05:25:20.882Z,9.10
2019-03-29T05:27:53.747Z,9.20
2019-03-29T05:30:26.684Z,9.50
2019-03-29T05:32:59.618Z,9.80
2019-03-29T05:35:32.501Z,10.00
2019-03-29T05:38:05.383Z,10.20
2019-03-29T05:40:38.373Z,10.40
2019-03-29T05:43:11.359Z,10.60
2019-03-29T05:45:44.549Z,11.00
2019-03-29T05:48:18.701Z,11.40
2019-03-29T05:50:51.569Z,11.60
2019-03-29T05:53:24.496Z,11.80
2019-03-29T05:55:57.446Z,12.20
2019-03-29T05:58:30.561Z,12.70
2019-03-29T06:01:03.472Z,13.00
2019-03-29T06:03:36.536Z,13.40
2019-03-29T06:06:09.463Z,13.70
2019-03-29T06:08:42.499Z,14.00
2019-03-29T06:11:15.327Z,14.30
2019-03-29T06:13:48.264Z,14.50
2019-03-29T06:16:21.173Z,14.90
2019-03-29T06:18:54.144Z,15.30
2019-03-29T06:21:27.017Z,15.80
2019-03-29T06:23:59.976Z,16.10
2019-03-29T06:26:33.102Z,16.40
2019-03-29T06:29:06.127Z,16.80
2019-03-29T06:31:40.918Z,17.30
2019-03-29T06:34:13.815Z,17.70
2019-03-29T06:36:48.236Z,17.90
2019-03-29T06:39:22.363Z,18.00
2019-03-29T06:41:55.375Z,18.60
2019-03-29T06:44:28.451Z,18.90
2019-03-29T06:47:01.631Z,19.10
2019-03-29T06:49:34.688Z,19.00
2019-03-29T06:52:07.611Z,19.00
2019-03-29T06:54:40.876Z,19.80
2019-03-29T06:57:13.879Z,20.40
2019-03-29T06:59:46.970Z,20.40
2019-03-29T07:02:19.979Z,20.10
2019-03-29T07:04:53.443Z,20.30
2019-03-29T07:07:26.964Z,20.20
2019-03-29T07:09:59.905Z,20.30
2019-03-29T07:12:32.854Z,20.10
2019-03-29T07:15:06.007Z,19.50
2019-03-29T07:17:39.034Z,19.20
2019-03-29T07:20:12.302Z,19.00
2019-03-29T07:22:45.245Z,18.80
2019-03-29T07:25:18.159Z,19.30
2019-03-29T07:27:52.416Z,18.70
2019-03-29T07:30:25.540Z,18.50
2019-03-29T07:32:58.490Z,17.90
2019-03-29T07:35:31.560Z,17.80
2019-03-29T07:38:04.640Z,18.50
2019-03-29T07:40:37.550Z,18.50
2019-03-29T07:43:10.487Z,19.10
2019-03-29T07:45:44.077Z,19.50
2019-03-29T07:48:17.269Z,19.90
2019-03-29T07:50:50.192Z,19.70
2019-03-29T07:53:23.200Z,20.40
2019-03-29T07:55:56.039Z,20.30
2019-03-29T07:58:28.940Z,20.30
2019-03-29T08:01:02.003Z,20.40
2019-03-29T08:03:35.049Z,20.70
2019-03-29T08:06:07.984Z,20.60
2019-03-29T08:08:40.874Z,20.90
2019-03-29T08:11:25.523Z,20.80
2019-03-29T08:13:48.629Z,21.10
2019-03-29T08:16:21.522Z,20.90
2019-03-29T08:18:54.467Z,21.40
2019-03-29T08:21:27.516Z,22.20
2019-03-29T08:24:00.438Z,22.20
2019-03-29T08:26:33.319Z,21.50
2019-03-29T08:29:06.995Z,19.80
2019-03-29T08:31:39.885Z,19.30
2019-03-29T08:34:12.765Z,19.10
2019-03-29T08:36:45.766Z,19.00
2019-03-29T08:39:27.937Z,18.90
2019-03-29T08:41:59.950Z,18.40
2019-03-29T08:44:28.754Z,18.20
2019-03-29T08:47:01.716Z,18.10
2019-03-29T08:49:34.614Z,17.80
2019-03-29T08:52:07.700Z,17.50
2019-03-29T08:54:40.507Z,17.50
2019-03-29T08:57:14.574Z,17.20
2019-03-29T08:59:47.483Z,17.10
2019-03-29T09:02:20.450Z,17.10
2019-03-29T09:04:53.512Z,17.10
2019-03-29T09:07:28.088Z,17.00
2019-03-29T09:10:01.083Z,17.00
2019-03-29T09:12:33.999Z,16.80
2019-03-29T09:15:07.472Z,16.80
2019-03-29T09:17:40.383Z,16.80
2019-03-29T09:20:13.746Z,16.90
2019-03-29T09:22:46.674Z,17.60
2019-03-29T09:25:21.139Z,18.50
2019-03-29T09:27:54.298Z,19.30
2019-03-29T09:30:27.334Z,20.30
2019-03-29T09:33:00.394Z,20.50
2019-03-29T09:35:33.420Z,21.10
2019-03-29T09:38:06.545Z,21.80
2019-03-29T09:40:39.494Z,22.40
2019-03-29T09:43:12.725Z,22.30
2019-03-29T09:45:45.649Z,22.40
2019-03-29T09:48:37.201Z,22.40
2019-03-29T09:51:10.116Z,22.40
2019-03-29T09:53:43.104Z,22.90
2019-03-29T09:56:16.093Z,23.20
2019-03-29T09:58:49.108Z,23.60
2019-03-29T10:01:22.080Z,24.30
2019-03-29T10:03:55.082Z,24.30
2019-03-29T10:06:27.897Z,24.00
2019-03-29T10:09:01.147Z,24.60
2019-03-29T10:11:33.980Z,24.70
2019-03-29T10:14:06.903Z,24.60
2019-03-29T10:16:39.883Z,24.40
2019-03-29T10:19:12.883Z,24.00
2019-03-29T10:21:45.829Z,23.60
2019-03-29T10:24:19.069Z,23.10
2019-03-29T10:26:51.941Z,22.00
2019-03-29T10:29:24.787Z,22.40
2019-03-29T10:31:58.116Z,23.30
2019-03-29T10:34:31.027Z,23.80
2019-03-29T10:37:03.891Z,23.80
2019-03-29T10:39:36.772Z,23.90
2019-03-29T10:42:09.855Z,23.80
2019-03-29T10:44:42.749Z,23.70
2019-03-29T10:47:15.676Z,23.80
2019-03-29T10:49:48.517Z,23.80
2019-03-29T10:52:21.378Z,24.00
2019-03-29T10:54:54.283Z,24.10
2019-03-29T10:57:27.130Z,24.40
2019-03-29T11:00:00.037Z,24.50
2019-03-29T11:02:33.017Z,24.60
2019-03-29T11:05:06.177Z,23.90
2019-03-29T11:07:39.141Z,22.90
2019-03-29T11:10:20.485Z,23.00
2019-03-29T11:12:53.349Z,23.20
2019-03-29T11:15:26.266Z,23.50
2019-03-29T11:17:59.243Z,23.40
2019-03-29T11:20:32.094Z,23.30
2019-03-29T11:23:05.026Z,22.50
2019-03-29T11:25:37.828Z,22.00
2019-03-29T11:28:10.746Z,22.30
2019-03-29T11:30:43.778Z,22.00
2019-03-29T11:33:16.791Z,22.10
2019-03-29T11:35:49.730Z,22.30
2019-03-29T11:38:22.767Z,22.30
2019-03-29T11:40:55.660Z,22.50
2019-03-29T11:43:28.878Z,22.80
2019-03-29T11:46:02.474Z,22.90
2019-03-29T11:48:35.483Z,22.80
2019-03-29T11:51:19.137Z,22.70
2019-03-29T11:53:43.171Z,22.20
2019-03-29T11:56:16.170Z,22.20
2019-03-29T11:58:49.639Z,22.00
2019-03-29T12:01:22.922Z,21.60
2019-03-29T12:03:55.784Z,21.10
2019-03-29T12:06:28.623Z,21.20
2019-03-29T12:09:01.686Z,21.30
2019-03-29T12:11:34.635Z,21.30
2019-03-29T12:14:08.415Z,21.30
2019-03-29T12:16:44.675Z,21.10
2019-03-29T12:19:17.587Z,21.00
2019-03-29T12:21:50.503Z,20.90
2019-03-29T12:24:23.484Z,20.60
2019-03-29T12:26:56.398Z,20.00
2019-03-29T12:29:29.290Z,19.80
2019-03-29T12:32:02.426Z,19.70
2019-03-29T12:34:37.637Z,19.70
2019-03-29T12:37:10.456Z,19.80
2019-03-29T12:39:43.355Z,19.60
2019-03-29T12:42:16.251Z,19.60
2019-03-29T12:44:49.153Z,19.70
2019-03-29T12:47:22.030Z,19.80
2019-03-29T12:49:54.960Z,19.80
2019-03-29T12:52:27.861Z,19.80
2019-03-29T12:55:00.844Z,19.70
2019-03-29T12:57:33.822Z,19.40
2019-03-29T13:00:08.583Z,19.30
2019-03-29T13:02:41.643Z,19.30
2019-03-29T13:05:14.917Z,19.50
2019-03-29T13:07:47.800Z,19.40
2019-03-29T13:10:22.302Z,19.20
2019-03-29T13:12:55.239Z,19.10
2019-03-29T13:15:28.296Z,19.10
2019-03-29T13:18:01.305Z,19.10
2019-03-29T13:20:34.323Z,18.90
2019-03-29T13:23:07.369Z,18.80
2019-03-29T13:25:40.458Z,18.90
2019-03-29T13:28:13.779Z,18.80
2019-03-29T13:30:46.656Z,18.80
2019-03-29T13:33:20.796Z,18.60
2019-03-29T13:35:54.242Z,18.40
2019-03-29T13:38:27.202Z,18.50
2019-03-29T13:41:00.470Z,18.50
2019-03-29T13:43:33.332Z,18.50
2019-03-29T13:46:06.240Z,18.50
2019-03-29T13:48:39.182Z,18.30
2019-03-29T13:51:12.158Z,18.10
2019-03-29T13:53:45.063Z,18.10
2019-03-29T13:56:18.543Z,18.10
2019-03-29T13:58:51.942Z,18.10
2019-03-29T14:01:25.457Z,18.10
2019-03-29T14:03:58.361Z,17.90
2019-03-29T14:06:31.273Z,17.90
2019-03-29T14:09:05.654Z,18.00
2019-03-29T14:11:38.555Z,18.20
2019-03-29T14:14:11.731Z,18.30
2019-03-29T14:16:44.700Z,18.20
2019-03-29T14:19:17.679Z,18.20
2019-03-29T14:21:50.676Z,18.00
2019-03-29T14:24:23.539Z,17.90
2019-03-29T14:26:57.290Z,18.00
2019-03-29T14:29:30.715Z,18.10
2019-03-29T14:32:03.775Z,18.10
2019-03-29T14:34:36.660Z,18.20
2019-03-29T14:37:09.950Z,18.20
2019-03-29T14:39:42.804Z,18.20
2019-03-29T14:42:15.793Z,18.10
2019-03-29T14:44:52.892Z,18.00
2019-03-29T14:47:23.500Z,18.00
2019-03-29T14:49:56.458Z,17.90
2019-03-29T14:52:29.775Z,17.80
2019-03-29T14:55:02.719Z,17.70
2019-03-29T14:57:35.927Z,17.70
2019-03-29T15:00:12.131Z,17.90
2019-03-29T15:02:45.172Z,18.00
2019-03-29T15:05:18.258Z,17.90
2019-03-29T15:07:51.233Z,17.60
2019-03-29T15:10:29.955Z,17.40
2019-03-29T15:13:02.905Z,17.20
2019-03-29T15:15:35.815Z,17.00
2019-03-29T15:18:08.988Z,16.90
2019-03-29T15:20:52.608Z,17.00
2019-03-29T15:23:16.581Z,17.20
2019-03-29T15:25:49.530Z,17.10
2019-03-29T15:28:22.473Z,17.00
2019-03-29T15:30:55.417Z,17.10
2019-03-29T15:33:28.340Z,17.30
2019-03-29T15:36:01.480Z,17.30
2019-03-29T15:38:34.431Z,17.40
2019-03-29T15:41:07.384Z,17.30
2019-03-29T15:43:40.335Z,17.30
2019-03-29T15:46:13.266Z,17.30
2019-03-29T15:48:46.619Z,17.20
2019-03-29T15:51:19.913Z,17.30
2019-03-29T15:53:52.869Z,17.40
2019-03-29T15:56:25.824Z,17.40
2019-03-29T15:58:58.800Z,17.40
2019-03-29T16:01:31.855Z,17.30
2019-03-29T16:04:04.752Z,17.20
2019-03-29T16:06:37.595Z,17.20
2019-03-29T16:09:10.899Z,17.10
2019-03-29T16:11:43.799Z,17.10
2019-03-29T16:14:16.820Z,17.00
2019-03-29T16:16:49.688Z,17.00
2019-03-29T16:19:22.886Z,16.80
2019-03-29T16:21:55.748Z,16.70
2019-03-29T16:24:28.652Z,16.80
2019-03-29T16:27:01.494Z,16.70
2019-03-29T16:29:34.515Z,16.70
2019-03-29T16:32:07.448Z,16.70
2019-03-29T16:34:40.540Z,16.60
2019-03-29T16:37:13.446Z,16.60
2019-03-29T16:39:47.513Z,16.60
2019-03-29T16:42:20.499Z,16.50
2019-03-29T16:44:53.597Z,16.40
2019-03-29T16:47:26.525Z,16.30
2019-03-29T16:50:00.564Z,16.20
2019-03-29T16:52:33.490Z,16.20
2019-03-29T16:55:13.241Z,16.20
2019-03-29T16:57:41.378Z,16.00
2019-03-29T17:00:14.651Z,15.90
2019-03-29T17:02:47.594Z,15.80
2019-03-29T17:05:20.634Z,15.70
2019-03-29T17:07:53.629Z,15.50
2019-03-29T17:10:26.727Z,15.40
2019-03-29T17:12:59.693Z,15.30
2019-03-29T17:15:32.634Z,15.20
2019-03-29T17:18:05.620Z,15.10
2019-03-29T17:20:38.639Z,15.10
2019-03-29T17:23:11.598Z,14.90
2019-03-29T17:25:44.676Z,14.90
2019-03-29T17:28:18.046Z,14.90
2019-03-29T17:31:09.824Z,14.90
2019-03-29T17:33:42.700Z,14.80
2019-03-29T17:36:15.711Z,14.70
2019-03-29T17:38:48.721Z,14.60
2019-03-29T17:41:21.894Z,14.70
2019-03-29T17:43:54.893Z,14.50
2019-03-29T17:46:27.988Z,14.50
2019-03-29T17:49:01.071Z,14.40
2019-03-29T17:51:34.184Z,14.40
2019-03-29T17:54:07.096Z,14.50
2019-03-29T17:56:40.122Z,14.40
2019-03-29T17:59:13.080Z,14.20
2019-03-29T18:01:46.102Z,14.20
2019-03-29T18:04:19.319Z,14.20
2019-03-29T18:06:52.337Z,14.20
2019-03-29T18:09:25.393Z,14.10
2019-03-29T18:11:58.486Z,14.00
2019-03-29T18:14:31.432Z,13.90
2019-03-29T18:17:04.442Z,13.90
2019-03-29T18:19:37.829Z,13.90
2019-03-29T18:22:10.813Z,13.80
2019-03-29T18:24:43.724Z,13.80
2019-03-29T18:27:17.142Z,13.80
2019-03-29T18:29:50.165Z,13.80
2019-03-29T18:32:23.119Z,13.80
2019-03-29T18:34:56.774Z,13.70
2019-03-29T18:37:30.443Z,13.70
2019-03-29T18:40:03.415Z,13.60
2019-03-29T18:42:36.564Z,13.60
2019-03-29T18:45:09.603Z,13.60
2019-03-29T18:47:42.563Z,13.60
2019-03-29T18:50:15.621Z,13.60
2019-03-29T18:52:48.639Z,13.50
2019-03-29T18:55:21.565Z,13.40
2019-03-29T18:57:54.504Z,13.50
2019-03-29T19:00:34.106Z,13.50
2019-03-29T19:03:17.778Z,13.50
2019-03-29T19:05:50.691Z,13.40
2019-03-29T19:08:23.763Z,13.40
2019-03-29T19:10:56.696Z,13.30
2019-03-29T19:13:29.612Z,13.30
2019-03-29T19:16:02.576Z,13.20
2019-03-29T19:18:35.557Z,13.20
2019-03-29T19:21:08.469Z,13.20
2019-03-29T19:23:41.393Z,13.20
2019-03-29T19:26:14.444Z,13.10
2019-03-29T19:28:47.513Z,13.10
2019-03-29T19:31:20.472Z,13.10
2019-03-29T19:33:53.527Z,13.10
2019-03-29T19:36:26.678Z,13.10
2019-03-29T19:39:00.119Z,13.10
2019-03-29T19:41:33.168Z,13.10
2019-03-29T19:44:07.809Z,13.10
2019-03-29T19:46:40.694Z,12.90
2019-03-29T19:49:16.975Z,13.00
2019-03-29T19:51:49.908Z,13.00
2019-03-29T19:54:22.833Z,13.00
2019-03-29T19:56:55.821Z,12.90
2019-03-29T19:59:28.739Z,12.90
2019-03-29T20:02:01.732Z,12.90
2019-03-29T20:04:35.457Z,12.80
2019-03-29T20:07:08.681Z,12.90
2019-03-29T20:09:42.186Z,12.80
2019-03-29T20:12:15.593Z,12.90
2019-03-29T20:14:48.693Z,12.80
2019-03-29T20:17:27.767Z,12.80
2019-03-29T20:19:57.290Z,12.70
2019-03-29T20:22:30.224Z,12.60
2019-03-29T20:25:03.275Z,12.60
2019-03-29T20:27:36.212Z,12.50
2019-03-29T20:30:10.090Z,12.50
2019-03-29T20:32:43.106Z,12.50
2019-03-29T20:35:16.040Z,12.50
2019-03-29T20:37:49.001Z,12.40
2019-03-29T20:40:21.916Z,12.30
2019-03-29T20:42:54.920Z,12.30
2019-03-29T20:45:28.778Z,12.20
2019-03-29T20:48:01.724Z,12.20
2019-03-29T20:50:35.203Z,12.10
2019-03-29T20:53:08.123Z,12.10
2019-03-29T20:55:41.012Z,12.10
2019-03-29T20:58:15.450Z,12.20
2019-03-29T21:00:48.831Z,12.20
2019-03-29T21:03:21.797Z,12.30
2019-03-29T21:05:54.823Z,12.30
2019-03-29T21:08:27.792Z,12.30
2019-03-29T21:11:00.951Z,12.20
2019-03-29T21:13:34.354Z,12.10
2019-03-29T21:16:07.957Z,12.30
2019-03-29T21:18:41.214Z,12.40
2019-03-29T21:21:14.447Z,12.50
2019-03-29T21:23:47.713Z,12.50
2019-03-29T21:26:23.835Z,12.40
2019-03-29T21:28:56.736Z,12.20
2019-03-29T21:31:29.641Z,12.20
2019-03-29T21:34:02.612Z,12.00
2019-03-29T21:36:35.601Z,11.90
2019-03-29T21:39:12.866Z,11.70
2019-03-29T21:41:45.809Z,11.70
2019-03-29T21:44:18.763Z,11.60
2019-03-29T21:46:52.742Z,11.50
2019-03-29T21:49:25.922Z,11.30
2019-03-29T21:51:59.502Z,11.30
2019-03-29T21:54:32.360Z,11.20
2019-03-29T21:57:06.291Z,11.30
2019-03-29T21:59:39.274Z,11.20
2019-03-29T22:02:12.153Z,11.20
2019-03-29T22:04:45.071Z,11.50
2019-03-29T22:07:18.033Z,11.60
2019-03-29T22:09:51.159Z,11.80
2019-03-29T22:12:24.463Z,11.90
2019-03-29T22:14:57.378Z,11.70
2019-03-29T22:17:30.263Z,11.50
2019-03-29T22:20:03.198Z,11.40
2019-03-29T22:22:37.249Z,11.20
2019-03-29T22:25:11.956Z,11.10
2019-03-29T22:27:44.918Z,11.00
2019-03-29T22:30:18.139Z,11.00
2019-03-29T22:32:51.129Z,10.80
2019-03-29T22:35:24.162Z,10.80
2019-03-29T22:37:57.429Z,10.60
2019-03-29T22:40:31.267Z,10.50
2019-03-29T22:43:07.308Z,10.60
2019-03-29T22:45:39.104Z,10.60
2019-03-29T22:48:12.111Z,10.70
2019-03-29T22:50:45.108Z,10.70
2019-03-29T22:53:18.050Z,10.80
2019-03-29T22:55:51.086Z,11.00
2019-03-29T22:58:24.137Z,11.10
2019-03-29T23:00:59.325Z,11.00
2019-03-29T23:03:33.046Z,11.10
2019-03-29T23:06:06.136Z,11.00
2019-03-29T23:08:39.129Z,11.00
2019-03-29T23:11:12.151Z,11.00
2019-03-29T23:13:45.175Z,11.10
2019-03-29T23:16:18.943Z,11.00
2019-03-29T23:19:05.580Z,10.80
2019-03-29T23:21:26.866Z,10.70
2019-03-29T23:24:00.209Z,10.70
2019-03-29T23:26:33.099Z,10.60
2019-03-29T23:29:06.039Z,10.60
2019-03-29T23:31:39.215Z,10.60
2019-03-29T23:34:12.354Z,10.60
2019-03-29T23:36:45.706Z,10.60
2019-03-29T23:39:18.628Z,10.60
2019-03-29T23:41:51.935Z,10.50
2019-03-29T23:44:24.922Z,10.50
2019-03-29T23:46:57.790Z,10.40
2019-03-29T23:49:30.862Z,10.40
2019-03-29T23:52:03.802Z,10.50
2019-03-29T23:54:36.704Z,10.40
2019-03-29T23:57:09.636Z,10.40
2019-03-29T23:59:42.665Z,10.30
